Time;durP1;ratioP1;P1;durP2;ratioP2;P2;SDS_P1;SDS_P2;PMS_P1;PMS_P2;Temp;Humidity;BMP_temperature;BMP_pressure;BME280_temperature;BME280_humidity;BME280_pressure;Samples;Min_cycle;Max_cycle;Signal;HPM_P1;HPM_P2
2022/03/08 00:02:23;;;;;;;13.20;7.00;;;0.80;99.90;;;;;;5019276;28;20555;-86
2022/03/08 00:04:49;;;;;;;12.90;7.37;;;0.70;99.90;;;;;;5017023;28;20098;-87
2022/03/08 00:07:14;;;;;;;14.03;7.30;;;0.70;99.90;;;;;;5008957;28;20136;-87
2022/03/08 00:09:40;;;;;;;13.77;7.87;;;0.60;99.90;;;;;;5002175;28;20045;-86
2022/03/08 00:12:07;;;;;;;14.13;8.47;;;0.60;99.90;;;;;;5034925;28;20033;-87
2022/03/08 00:14:34;;;;;;;14.13;7.90;;;0.60;99.90;;;;;;5002610;28;20044;-86
2022/03/08 00:17:00;;;;;;;12.43;7.63;;;0.50;99.90;;;;;;5002816;28;20280;-86
2022/03/08 00:19:26;;;;;;;14.90;8.07;;;0.50;99.90;;;;;;5019607;28;20283;-86
2022/03/08 00:21:52;;;;;;;13.20;7.73;;;0.50;99.90;;;;;;5002574;28;20290;-86
2022/03/08 00:24:18;;;;;;;10.77;6.87;;;0.50;99.90;;;;;;5003049;28;20592;-86
2022/03/08 00:26:44;;;;;;;12.63;7.53;;;0.40;99.90;;;;;;5002689;28;20822;-86
2022/03/08 00:29:10;;;;;;;13.53;7.60;;;0.30;99.90;;;;;;5002858;28;20307;-86
2022/03/08 00:31:36;;;;;;;12.97;7.70;;;0.30;99.90;;;;;;5018228;28;20643;-86
2022/03/08 00:34:03;;;;;;;11.33;7.27;;;0.20;99.90;;;;;;5009251;28;20029;-86
2022/03/08 00:36:30;;;;;;;11.50;7.73;;;0.10;99.90;;;;;;5001992;28;20504;-86
2022/03/08 00:38:55;;;;;;;12.30;7.30;;;0.10;99.90;;;;;;4982418;28;21175;-86
2022/03/08 00:41:22;;;;;;;12.70;8.30;;;0.10;99.90;;;;;;4967694;28;20284;-86
2022/03/08 00:43:49;;;;;;;14.37;8.23;;;0.00;99.90;;;;;;5018654;28;20455;-86
2022/03/08 00:46:15;;;;;;;15.80;7.87;;;0.00;99.90;;;;;;5000747;28;20308;-86
2022/03/08 00:48:42;;;;;;;11.97;7.40;;;0.00;99.90;;;;;;4989073;28;20373;-81
2022/03/08 00:51:08;;;;;;;14.37;8.10;;;0.00;99.90;;;;;;5005976;28;20338;-81
2022/03/08 00:53:34;;;;;;;12.43;7.20;;;-0.10;99.90;;;;;;4993576;28;20294;-80
2022/03/08 00:56:00;;;;;;;13.33;7.70;;;-0.10;99.90;;;;;;4982421;28;20272;-81
2022/03/08 00:58:25;;;;;;;13.77;8.10;;;-0.20;99.90;;;;;;5011680;28;20047;-81
2022/03/08 01:00:51;;;;;;;14.17;8.47;;;-0.20;99.90;;;;;;5001040;28;20075;-81
2022/03/08 01:03:17;;;;;;;13.80;8.00;;;-0.20;99.90;;;;;;5001374;28;20029;-80
2022/03/08 01:05:43;;;;;;;14.37;8.20;;;-0.20;99.90;;;;;;5000699;28;20632;-81
2022/03/08 01:08:09;;;;;;;13.93;7.47;;;-0.20;99.90;;;;;;5031599;28;20106;-81
2022/03/08 01:10:35;;;;;;;12.20;7.20;;;-0.20;99.90;;;;;;4991775;28;20045;-80
2022/03/08 01:13:01;;;;;;;13.57;7.20;;;-0.30;99.90;;;;;;5017708;28;20041;-81
2022/03/08 01:15:28;;;;;;;10.53;6.77;;;-0.40;99.90;;;;;;5015542;28;20392;-80
2022/03/08 01:17:56;;;;;;;14.87;8.33;;;-0.50;99.90;;;;;;5023014;28;20346;-80
2022/03/08 01:20:23;;;;;;;11.80;7.23;;;-0.50;99.90;;;;;;5034600;28;20320;-80
2022/03/08 01:22:49;;;;;;;13.60;7.10;;;-0.60;99.90;;;;;;5018713;28;20762;-79
2022/03/08 01:25:16;;;;;;;13.77;7.60;;;-0.60;99.90;;;;;;5018581;28;20322;-78
2022/03/08 01:27:43;;;;;;;11.87;6.73;;;-0.60;99.90;;;;;;5033970;28;20656;-81
2022/03/08 01:30:12;;;;;;;10.73;7.37;;;-0.70;99.90;;;;;;5002105;28;20280;-81
2022/03/08 01:32:38;;;;;;;13.53;7.57;;;-0.70;99.90;;;;;;5029836;28;20275;-81
2022/03/08 01:35:04;;;;;;;12.87;8.10;;;-0.70;99.90;;;;;;5017936;28;21056;-81
2022/03/08 01:37:30;;;;;;;14.87;7.67;;;-0.70;99.90;;;;;;5032610;28;20433;-81
2022/03/08 01:39:55;;;;;;;13.93;7.60;;;-0.70;99.90;;;;;;4996010;28;20359;-81
2022/03/08 01:42:24;;;;;;;14.87;8.50;;;-0.70;99.90;;;;;;5000886;28;20075;-81
2022/03/08 01:44:51;;;;;;;16.67;8.37;;;-0.60;99.90;;;;;;5010327;28;20033;-81
2022/03/08 01:47:20;;;;;;;13.93;7.33;;;-0.60;99.90;;;;;;5016491;28;20359;-81
2022/03/08 01:49:46;;;;;;;13.77;8.17;;;-0.60;99.90;;;;;;5030752;28;20303;-81
2022/03/08 01:52:14;;;;;;;14.33;7.80;;;-0.50;99.90;;;;;;5020448;28;20283;-81
2022/03/08 01:54:42;;;;;;;11.63;7.33;;;-0.60;99.90;;;;;;5035369;28;20353;-81
2022/03/08 01:57:08;;;;;;;12.57;7.50;;;-0.60;99.90;;;;;;5036106;28;20908;-81
2022/03/08 01:59:35;;;;;;;14.83;8.47;;;-0.70;99.90;;;;;;5019447;28;20783;-81
2022/03/08 02:02:02;;;;;;;13.23;7.97;;;-0.70;99.90;;;;;;5003614;28;20279;-81
2022/03/08 02:04:27;;;;;;;14.10;7.77;;;-0.70;99.90;;;;;;5020101;28;20933;-80
2022/03/08 02:06:53;;;;;;;14.47;8.03;;;-0.60;99.90;;;;;;5012371;28;20292;-80
2022/03/08 02:09:19;;;;;;;13.60;8.40;;;-0.60;99.90;;;;;;5000564;28;20173;-81
2022/03/08 02:11:45;;;;;;;15.23;8.97;;;-0.70;99.90;;;;;;5028737;28;20075;-81
2022/03/08 02:14:10;;;;;;;15.57;8.13;;;-0.70;99.90;;;;;;5029205;28;20041;-81
2022/03/08 02:16:36;;;;;;;14.93;8.67;;;-0.60;99.90;;;;;;5019933;28;20041;-81
2022/03/08 02:19:03;;;;;;;16.13;8.53;;;-0.70;99.90;;;;;;5002166;28;20132;-80
2022/03/08 02:21:34;;;;;;;17.73;8.93;;;-0.60;99.90;;;;;;5018807;28;20048;-80
2022/03/08 02:23:59;;;;;;;17.15;9.00;;;-0.60;99.90;;;;;;5014405;28;20737;-81
2022/03/08 02:26:26;;;;;;;18.60;8.83;;;-0.60;99.90;;;;;;5001914;28;20135;-80
2022/03/08 02:28:52;;;;;;;16.80;9.37;;;-0.60;99.90;;;;;;4996931;28;20079;-81
2022/03/08 02:31:18;;;;;;;14.07;9.10;;;-0.50;99.90;;;;;;4966518;28;20296;-80
2022/03/08 02:33:47;;;;;;;13.23;8.30;;;-0.50;99.90;;;;;;5019389;28;20283;-80
2022/03/08 02:36:13;;;;;;;17.07;9.13;;;-0.50;99.90;;;;;;4994091;28;20029;-81
2022/03/08 02:38:39;;;;;;;18.40;9.33;;;-0.50;99.90;;;;;;5017883;28;20299;-81
2022/03/08 02:41:04;;;;;;;17.43;8.47;;;-0.50;99.90;;;;;;4998914;28;20032;-80
2022/03/08 02:43:30;;;;;;;16.23;9.70;;;-0.60;99.90;;;;;;5027563;28;20052;-81
2022/03/08 02:45:56;;;;;;;15.97;9.00;;;-0.50;99.90;;;;;;5003612;28;20475;-81
2022/03/08 02:48:25;;;;;;;16.17;8.97;;;-0.60;99.90;;;;;;5003428;28;20095;-81
2022/03/08 02:50:51;;;;;;;16.60;8.33;;;-0.60;99.90;;;;;;5024811;28;20041;-80
2022/03/08 02:53:16;;;;;;;16.63;9.37;;;-0.60;99.90;;;;;;5055841;28;20340;-81
2022/03/08 02:55:42;;;;;;;20.27;9.87;;;-0.60;99.90;;;;;;4986977;28;20040;-81
2022/03/08 02:58:08;;;;;;;16.77;9.20;;;-0.60;99.90;;;;;;5014048;28;20049;-80
2022/03/08 03:00:35;;;;;;;12.83;8.57;;;-0.70;99.90;;;;;;4999401;28;20049;-81
2022/03/08 03:03:01;;;;;;;16.20;8.93;;;-0.70;99.90;;;;;;5000089;28;20069;-81
2022/03/08 03:05:27;;;;;;;16.77;8.90;;;-0.70;99.90;;;;;;4983362;28;20282;-81
2022/03/08 03:07:53;;;;;;;17.43;9.17;;;-0.70;99.90;;;;;;5029601;28;20722;-80
2022/03/08 03:10:20;;;;;;;17.87;9.47;;;-0.70;99.90;;;;;;5032007;28;20120;-81
2022/03/08 03:12:47;;;;;;;17.67;9.57;;;-0.70;99.90;;;;;;5029387;28;20037;-81
2022/03/08 03:15:14;;;;;;;16.63;8.87;;;-0.70;99.90;;;;;;5011989;28;20282;-81
2022/03/08 03:17:41;;;;;;;18.93;9.73;;;-0.70;99.90;;;;;;4998686;28;20290;-81
2022/03/08 03:20:09;;;;;;;16.43;8.60;;;-0.80;99.90;;;;;;5009501;28;20655;-81
2022/03/08 03:22:36;;;;;;;14.37;8.57;;;-0.90;99.90;;;;;;5018571;28;20620;-80
2022/03/08 03:25:02;;;;;;;18.93;10.43;;;-0.90;99.90;;;;;;5035188;28;20280;-80
2022/03/08 03:27:28;;;;;;;15.97;8.87;;;-1.00;99.90;;;;;;5001484;28;20307;-81
2022/03/08 03:29:54;;;;;;;14.23;8.13;;;-1.00;99.90;;;;;;4996796;28;20306;-81
2022/03/08 03:32:23;;;;;;;18.00;9.23;;;-1.00;99.90;;;;;;5010928;28;20116;-81
2022/03/08 03:34:49;;;;;;;17.67;8.97;;;-1.00;99.90;;;;;;5013386;28;20362;-81
2022/03/08 03:37:15;;;;;;;17.40;8.50;;;-1.00;99.90;;;;;;5011275;28;20946;-81
2022/03/08 03:39:41;;;;;;;16.83;8.73;;;-1.00;99.90;;;;;;5018189;28;20370;-80
2022/03/08 03:42:07;;;;;;;15.57;8.47;;;-1.10;99.90;;;;;;5018388;28;20045;-80
2022/03/08 03:44:32;;;;;;;15.60;9.50;;;-1.10;99.90;;;;;;5009003;28;20044;-81
2022/03/08 03:46:58;;;;;;;13.80;8.37;;;-1.20;99.90;;;;;;5016440;28;20056;-80
2022/03/08 03:49:24;;;;;;;16.20;8.27;;;-1.20;99.90;;;;;;5018454;28;20354;-81
2022/03/08 03:51:51;;;;;;;19.83;9.37;;;-1.20;99.90;;;;;;5020740;28;20033;-80
2022/03/08 03:54:21;;;;;;;14.20;8.50;;;-1.20;99.90;;;;;;5018777;28;20033;-80
2022/03/08 03:56:46;;;;;;;15.00;9.03;;;-1.30;99.90;;;;;;5009185;28;20639;-81
2022/03/08 03:59:12;;;;;;;14.37;8.70;;;-1.30;99.90;;;;;;5018447;28;20279;-79
2022/03/08 04:01:39;;;;;;;14.20;9.00;;;-1.30;99.90;;;;;;5034941;28;20295;-79
2022/03/08 04:04:04;;;;;;;18.83;10.40;;;-1.30;99.90;;;;;;5002775;28;20037;-81
2022/03/08 04:06:32;;;;;;;17.87;9.50;;;-1.40;99.90;;;;;;5002161;28;20283;-81
2022/03/08 04:08:58;;;;;;;16.83;9.07;;;-1.40;99.90;;;;;;5032109;28;20511;-81
2022/03/08 04:11:24;;;;;;;18.67;9.30;;;-1.40;99.90;;;;;;5031623;28;20374;-80
2022/03/08 04:13:49;;;;;;;19.97;9.43;;;-1.40;99.90;;;;;;5018171;28;20366;-81
2022/03/08 04:16:15;;;;;;;18.60;10.30;;;-1.40;99.90;;;;;;5018508;28;20457;-80
2022/03/08 04:18:41;;;;;;;16.67;9.80;;;-1.50;99.90;;;;;;4992956;28;20167;-81
2022/03/08 04:21:06;;;;;;;19.47;9.87;;;-1.50;99.90;;;;;;5013047;28;20041;-81
2022/03/08 04:23:32;;;;;;;17.13;8.60;;;-1.50;99.90;;;;;;4985157;28;20060;-81
2022/03/08 04:25:58;;;;;;;15.57;9.03;;;-1.50;99.90;;;;;;4977346;28;20138;-81
2022/03/08 04:28:23;;;;;;;18.50;9.53;;;-1.40;99.90;;;;;;5000460;28;20413;-80
2022/03/08 04:30:49;;;;;;;18.97;10.30;;;-1.40;99.90;;;;;;5001804;28;20040;-80
2022/03/08 04:33:15;;;;;;;17.37;9.80;;;-1.40;99.90;;;;;;5001929;28;20029;-81
2022/03/08 04:35:41;;;;;;;20.40;10.47;;;-1.50;99.90;;;;;;5000083;28;20489;-79
2022/03/08 04:38:06;;;;;;;19.70;11.30;;;-1.40;99.90;;;;;;5017520;28;20076;-80
2022/03/08 04:40:32;;;;;;;20.17;10.57;;;-1.40;99.90;;;;;;5001283;28;20122;-81
2022/03/08 04:42:58;;;;;;;18.47;10.17;;;-1.40;99.90;;;;;;5001407;28;20041;-80
2022/03/08 04:45:24;;;;;;;18.10;10.27;;;-1.40;99.90;;;;;;5001283;28;20037;-80
2022/03/08 04:47:49;;;;;;;22.40;10.97;;;-1.40;99.90;;;;;;5033581;28;20102;-80
2022/03/08 04:50:16;;;;;;;23.87;12.10;;;-1.30;99.90;;;;;;5017087;28;20081;-80
2022/03/08 04:52:44;;;;;;;22.90;11.37;;;-1.30;99.90;;;;;;5017612;28;20041;-81
2022/03/08 04:55:10;;;;;;;23.33;12.20;;;-1.20;99.90;;;;;;5000744;28;20291;-81
2022/03/08 04:57:36;;;;;;;21.87;12.40;;;-1.20;99.90;;;;;;5017567;28;20371;-80
2022/03/08 05:00:06;;;;;;;23.47;12.20;;;-1.10;99.90;;;;;;5033265;28;20671;-80
2022/03/08 05:02:31;;;;;;;24.37;12.07;;;-1.10;99.90;;;;;;5017506;28;20099;-81
2022/03/08 05:04:57;;;;;;;25.43;12.30;;;-1.00;99.90;;;;;;5033877;28;20786;-80
2022/03/08 05:07:23;;;;;;;24.10;12.13;;;-1.00;99.90;;;;;;5000856;28;20052;-81
2022/03/08 05:09:48;;;;;;;23.77;12.27;;;-0.90;99.90;;;;;;5000898;28;20049;-80
2022/03/08 05:12:14;;;;;;;24.90;13.03;;;-0.80;99.90;;;;;;5033235;28;20075;-81
2022/03/08 05:14:40;;;;;;;20.73;12.17;;;-0.80;99.90;;;;;;5017192;28;20144;-81
2022/03/08 05:17:06;;;;;;;22.03;11.77;;;-0.70;99.90;;;;;;5000815;28;20041;-80
2022/03/08 05:19:32;;;;;;;23.47;13.03;;;-0.70;99.90;;;;;;5000827;28;20102;-81
2022/03/08 05:21:57;;;;;;;23.37;12.20;;;-0.70;99.90;;;;;;5000260;28;20819;-80
2022/03/08 05:24:23;;;;;;;25.23;12.47;;;-0.60;99.90;;;;;;5017021;28;20048;-80
2022/03/08 05:26:49;;;;;;;22.97;12.53;;;-0.60;99.90;;;;;;4999527;28;20056;-81
2022/03/08 05:29:15;;;;;;;24.17;12.83;;;-0.60;99.90;;;;;;5032294;28;20067;-81
2022/03/08 05:31:40;;;;;;;25.47;13.53;;;-0.60;99.90;;;;;;5016192;28;20048;-81
2022/03/08 05:34:06;;;;;;;24.33;12.40;;;-0.60;99.90;;;;;;4999811;28;20045;-81
2022/03/08 05:36:33;;;;;;;23.00;11.63;;;-0.60;99.90;;;;;;4999701;28;20349;-80
2022/03/08 05:38:59;;;;;;;22.70;12.07;;;-0.70;99.90;;;;;;5016666;28;20400;-80
2022/03/08 05:41:24;;;;;;;23.07;12.17;;;-0.70;99.90;;;;;;4997020;28;20288;-80
2022/03/08 05:43:50;;;;;;;22.57;12.37;;;-0.70;99.90;;;;;;5002533;28;20045;-81
2022/03/08 05:46:16;;;;;;;24.73;13.50;;;-0.80;99.90;;;;;;5028928;28;20045;-81
2022/03/08 05:48:41;;;;;;;22.67;12.53;;;-0.70;99.90;;;;;;5016661;28;20130;-80
2022/03/08 05:51:07;;;;;;;24.77;12.33;;;-0.80;99.90;;;;;;5016846;28;20041;-81
2022/03/08 05:53:33;;;;;;;25.17;12.90;;;-0.80;99.90;;;;;;4987635;28;20036;-81
2022/03/08 05:55:59;;;;;;;21.43;12.70;;;-0.90;99.90;;;;;;5000725;28;20519;-81
2022/03/08 05:58:25;;;;;;;23.10;13.70;;;-0.80;99.90;;;;;;5000108;28;20124;-81
2022/03/08 06:00:51;;;;;;;24.97;13.43;;;-0.90;99.90;;;;;;5007082;28;20851;-81
2022/03/08 06:03:17;;;;;;;24.77;13.80;;;-0.80;99.90;;;;;;4988763;28;20291;-80
2022/03/08 06:05:42;;;;;;;25.87;13.53;;;-0.80;99.90;;;;;;4999867;28;20098;-81
2022/03/08 06:08:08;;;;;;;25.73;13.53;;;-0.80;99.90;;;;;;5016257;28;20697;-81
2022/03/08 06:10:34;;;;;;;29.87;14.13;;;-0.70;99.90;;;;;;4999916;28;20167;-81
2022/03/08 06:13:00;;;;;;;23.47;13.83;;;-0.70;99.90;;;;;;5032794;28;20108;-81
2022/03/08 06:15:26;;;;;;;24.30;13.77;;;-0.70;99.90;;;;;;4999914;28;20045;-81
2022/03/08 06:17:52;;;;;;;26.70;14.27;;;-0.60;99.90;;;;;;5016339;28;20607;-80
2022/03/08 06:20:17;;;;;;;28.20;13.70;;;-0.60;99.90;;;;;;4999984;28;20119;-80
2022/03/08 06:22:43;;;;;;;23.73;13.80;;;-0.50;99.90;;;;;;5000012;28;20412;-81
2022/03/08 06:25:10;;;;;;;27.20;14.37;;;-0.50;99.90;;;;;;4999368;28;20091;-80
2022/03/08 06:27:35;;;;;;;26.90;14.83;;;-0.40;99.90;;;;;;5015652;28;20401;-81
2022/03/08 06:30:02;;;;;;;27.30;14.43;;;-0.40;99.90;;;;;;5015947;28;20300;-81
2022/03/08 06:32:28;;;;;;;25.53;13.83;;;-0.30;99.90;;;;;;5016918;28;20037;-80
2022/03/08 06:34:53;;;;;;;26.17;14.40;;;-0.30;99.90;;;;;;5002108;28;20284;-79
2022/03/08 06:37:19;;;;;;;23.97;12.93;;;-0.20;99.90;;;;;;5005078;28;20124;-78
2022/03/08 06:39:46;;;;;;;24.87;13.87;;;-0.20;99.90;;;;;;5020406;28;20051;-81
2022/03/08 06:42:12;;;;;;;28.33;14.00;;;-0.10;99.90;;;;;;5033983;28;20041;-81
2022/03/08 06:44:40;;;;;;;24.27;13.83;;;-0.10;99.90;;;;;;4995447;28;20283;-80
2022/03/08 06:47:07;;;;;;;25.53;14.40;;;-0.10;99.90;;;;;;5019022;28;20126;-79
2022/03/08 06:49:34;;;;;;;26.47;14.43;;;0.00;99.90;;;;;;5034684;28;20326;-80
2022/03/08 06:52:00;;;;;;;24.77;13.70;;;0.00;99.90;;;;;;5019048;28;20302;-79
2022/03/08 06:54:26;;;;;;;24.07;13.40;;;0.00;99.90;;;;;;5033785;28;21176;-79
2022/03/08 06:56:51;;;;;;;26.40;13.93;;;0.10;99.90;;;;;;5018826;28;20283;-79
2022/03/08 06:59:17;;;;;;;26.03;13.47;;;0.10;99.90;;;;;;5002279;28;20052;-80
2022/03/08 07:01:43;;;;;;;24.80;13.67;;;0.20;99.90;;;;;;5002872;28;20048;-80
2022/03/08 07:04:08;;;;;;;24.17;13.70;;;0.20;99.90;;;;;;5033676;28;20408;-80
2022/03/08 07:06:34;;;;;;;27.63;14.07;;;0.30;99.90;;;;;;5002434;28;20098;-80
2022/03/08 07:09:00;;;;;;;23.17;13.20;;;0.30;99.90;;;;;;5034435;28;20041;-80
2022/03/08 07:11:25;;;;;;;26.20;13.67;;;0.40;99.90;;;;;;5016244;28;20603;-80
2022/03/08 07:13:51;;;;;;;24.33;13.43;;;0.40;99.90;;;;;;4996596;28;20036;-80
2022/03/08 07:16:18;;;;;;;31.30;15.33;;;0.50;99.90;;;;;;5035686;28;20037;-80
2022/03/08 07:18:44;;;;;;;29.70;13.87;;;0.50;99.90;;;;;;5019444;28;20056;-80
2022/03/08 07:21:10;;;;;;;24.53;14.23;;;0.60;99.90;;;;;;5016680;28;20290;-80
2022/03/08 07:23:36;;;;;;;26.20;14.13;;;0.70;99.90;;;;;;5025778;28;20048;-79
2022/03/08 07:26:01;;;;;;;25.90;14.73;;;0.70;99.90;;;;;;5001446;28;20156;-79
2022/03/08 07:28:27;;;;;;;24.90;13.30;;;0.80;99.90;;;;;;5001179;28;20445;-79
2022/03/08 07:30:53;;;;;;;23.37;13.73;;;0.90;99.90;;;;;;5002753;28;20114;-79
2022/03/08 07:33:19;;;;;;;27.97;13.63;;;1.00;99.90;;;;;;5017489;28;20074;-80
2022/03/08 07:35:44;;;;;;;23.73;12.90;;;1.10;99.90;;;;;;4985658;28;20040;-80
2022/03/08 07:38:10;;;;;;;21.70;12.90;;;1.10;99.90;;;;;;5001735;28;20480;-79
2022/03/08 07:40:36;;;;;;;26.33;13.67;;;1.30;99.90;;;;;;5001805;28;20037;-80
2022/03/08 07:43:02;;;;;;;22.83;13.10;;;1.30;99.90;;;;;;5017914;28;20037;-79
2022/03/08 07:45:29;;;;;;;21.27;13.17;;;1.40;99.90;;;;;;5017828;28;20109;-80
2022/03/08 07:47:55;;;;;;;25.37;14.10;;;1.50;99.90;;;;;;5014962;28;20790;-79
2022/03/08 07:50:22;;;;;;;20.30;13.43;;;1.50;99.90;;;;;;5017246;28;20307;-80
2022/03/08 07:52:49;;;;;;;22.13;13.10;;;1.60;99.90;;;;;;5001478;28;20491;-80
2022/03/08 07:55:15;;;;;;;23.40;12.23;;;1.70;99.90;;;;;;5034551;28;20279;-79
2022/03/08 07:57:40;;;;;;;26.47;13.13;;;1.80;99.90;;;;;;5016700;28;20631;-79
2022/03/08 08:00:07;;;;;;;22.73;13.47;;;1.90;99.90;;;;;;5033780;28;20052;-79
2022/03/08 08:02:33;;;;;;;22.57;13.13;;;1.90;99.90;;;;;;5017226;28;20128;-80
2022/03/08 08:04:59;;;;;;;21.77;13.13;;;2.00;99.90;;;;;;5012237;28;20311;-80
2022/03/08 08:07:25;;;;;;;21.43;13.10;;;2.00;99.90;;;;;;4998280;28;20288;-80
2022/03/08 08:09:51;;;;;;;24.50;13.23;;;2.20;99.90;;;;;;5033582;28;20041;-79
2022/03/08 08:12:16;;;;;;;20.80;12.97;;;2.30;99.90;;;;;;5001008;28;20690;-79
2022/03/08 08:14:42;;;;;;;21.33;12.30;;;2.30;99.90;;;;;;5015493;28;20492;-80
2022/03/08 08:17:08;;;;;;;24.50;12.30;;;2.40;99.90;;;;;;5033451;28;20041;-80
2022/03/08 08:19:34;;;;;;;20.20;12.13;;;2.50;99.90;;;;;;5017484;28;20048;-80
2022/03/08 08:21:59;;;;;;;21.20;12.60;;;2.60;99.90;;;;;;5001094;28;20047;-80
2022/03/08 08:24:25;;;;;;;20.13;12.23;;;2.70;99.90;;;;;;5017504;28;20037;-80
2022/03/08 08:26:51;;;;;;;20.57;11.70;;;2.80;99.90;;;;;;5017194;28;20513;-80
2022/03/08 08:29:17;;;;;;;20.60;12.03;;;2.90;99.90;;;;;;5016927;28;20052;-80
2022/03/08 08:31:42;;;;;;;21.47;12.47;;;3.00;99.90;;;;;;5017730;28;20120;-79
2022/03/08 08:34:08;;;;;;;19.63;12.53;;;3.10;99.90;;;;;;5016850;28;20485;-80
2022/03/08 08:36:34;;;;;;;20.33;12.23;;;3.20;99.90;;;;;;4983953;28;20133;-79
2022/03/08 08:39:00;;;;;;;19.17;12.73;;;3.20;99.90;;;;;;5033406;28;20036;-79
2022/03/08 08:41:25;;;;;;;18.03;11.60;;;3.40;99.90;;;;;;5000563;28;20099;-80
2022/03/08 08:43:51;;;;;;;19.13;11.83;;;3.50;99.90;;;;;;5017055;28;20040;-79
2022/03/08 08:46:17;;;;;;;17.80;11.90;;;3.60;99.90;;;;;;5017400;28;20120;-80
2022/03/08 08:48:43;;;;;;;19.13;11.57;;;3.60;99.90;;;;;;5016147;28;20151;-80
2022/03/08 08:51:09;;;;;;;21.13;12.30;;;3.70;99.90;;;;;;5016913;28;20051;-80
2022/03/08 08:53:35;;;;;;;18.77;11.90;;;3.80;99.90;;;;;;5016631;28;20044;-80
2022/03/08 08:56:01;;;;;;;24.47;12.17;;;3.90;99.90;;;;;;5016183;28;20040;-80
2022/03/08 08:58:26;;;;;;;18.30;11.63;;;4.00;99.90;;;;;;5032608;28;20090;-80
2022/03/08 09:00:52;;;;;;;19.47;11.90;;;4.00;99.90;;;;;;5016334;28;20559;-79
2022/03/08 09:03:18;;;;;;;21.53;11.17;;;4.20;99.90;;;;;;5016567;28;20054;-80
2022/03/08 09:05:47;;;;;;;18.50;11.43;;;4.40;99.90;;;;;;5016203;28;20128;-80
2022/03/08 09:08:17;;;;;;;17.30;11.97;;;4.40;99.90;;;;;;4997462;28;20052;-80
2022/03/08 09:10:43;;;;;;;16.67;11.20;;;4.50;99.90;;;;;;5016623;28;20055;-80
2022/03/08 09:13:09;;;;;;;16.37;10.93;;;4.50;99.90;;;;;;5001199;28;20041;-79
2022/03/08 09:15:35;;;;;;;18.80;10.97;;;4.70;99.90;;;;;;5001465;28;20102;-79
2022/03/08 09:18:05;;;;;;;16.97;11.87;;;4.80;99.90;;;;;;4999448;28;20103;-78
2022/03/08 09:20:31;;;;;;;18.60;10.50;;;4.90;99.90;;;;;;5016470;28;20041;-79
2022/03/08 09:22:57;;;;;;;17.90;12.20;;;5.00;99.90;;;;;;5016986;28;20102;-80
2022/03/08 09:25:23;;;;;;;17.10;10.83;;;5.00;99.90;;;;;;5000192;28;20040;-80
2022/03/08 09:27:49;;;;;;;16.07;10.77;;;5.10;99.90;;;;;;5000031;28;20073;-80
2022/03/08 09:30:16;;;;;;;17.07;10.23;;;5.30;99.90;;;;;;5032174;28;20048;-80
2022/03/08 09:32:42;;;;;;;17.17;11.30;;;5.40;99.90;;;;;;5016147;28;20432;-80
2022/03/08 09:35:09;;;;;;;16.30;10.30;;;5.60;99.90;;;;;;5000537;28;20056;-80
2022/03/08 09:37:34;;;;;;;17.57;10.60;;;5.70;99.90;;;;;;4999839;28;20052;-80
2022/03/08 09:40:01;;;;;;;13.97;9.50;;;5.90;99.90;;;;;;5028000;28;20404;-80
2022/03/08 09:42:28;;;;;;;14.20;9.67;;;6.00;99.90;;;;;;5015554;28;20045;-80
2022/03/08 09:44:54;;;;;;;13.57;9.27;;;6.10;99.90;;;;;;5011108;28;20057;-80
2022/03/08 09:47:20;;;;;;;11.60;9.07;;;6.20;99.90;;;;;;4997983;28;20042;-80
2022/03/08 09:49:46;;;;;;;12.37;8.93;;;6.30;99.90;;;;;;4989184;28;20043;-79
2022/03/08 09:52:11;;;;;;;14.17;9.77;;;6.40;99.90;;;;;;5029583;28;20116;-80
2022/03/08 09:54:37;;;;;;;12.97;9.07;;;6.50;99.90;;;;;;5032475;28;20056;-80
2022/03/08 09:57:14;;;;;;;12.87;8.93;;;6.60;99.90;;;;;;5014965;28;20471;-80
2022/03/08 09:59:41;;;;;;;11.53;9.00;;;6.80;99.90;;;;;;5026158;28;20099;-80
2022/03/08 10:02:06;;;;;;;14.27;8.70;;;6.90;99.90;;;;;;5031252;28;20044;-80
2022/03/08 10:04:32;;;;;;;12.00;8.43;;;6.90;99.90;;;;;;4993240;28;20127;-80
2022/03/08 10:06:58;;;;;;;12.63;8.43;;;7.00;99.90;;;;;;4997303;28;20036;-80
2022/03/08 10:09:25;;;;;;;13.27;8.20;;;7.20;99.90;;;;;;5030846;28;20511;-80
2022/03/08 10:11:52;;;;;;;10.90;8.00;;;7.30;99.90;;;;;;5014298;28;20041;-80
2022/03/08 10:14:40;;;;;;;10.87;7.83;;;7.30;99.90;;;;;;5036382;28;20434;-80
2022/03/08 10:17:07;;;;;;;13.27;8.53;;;7.40;95.10;;;;;;5033286;28;20115;-81
2022/03/08 10:20:03;;;;;;;10.97;7.77;;;7.40;99.90;;;;;;5019231;28;20047;-80
2022/03/08 10:22:31;;;;;;;11.20;8.27;;;7.50;92.50;;;;;;5013438;28;20061;-80
2022/03/08 10:25:19;;;;;;;10.47;7.83;;;7.60;98.00;;;;;;5013560;28;20048;-80
2022/03/08 10:27:53;;;;;;;10.90;7.93;;;7.70;93.20;;;;;;5013551;28;20190;-81
2022/03/08 10:30:21;;;;;;;11.60;8.20;;;7.80;95.30;;;;;;5035539;28;20049;-80
2022/03/08 10:32:47;;;;;;;10.97;7.80;;;7.90;97.20;;;;;;5024527;28;20036;-80
2022/03/08 10:35:24;;;;;;;9.83;8.03;;;8.00;97.70;;;;;;4988269;28;20040;-80
2022/03/08 10:37:51;;;;;;;9.63;7.57;;;8.00;92.40;;;;;;5029423;28;20029;-80
2022/03/08 10:40:32;;;;;;;11.33;7.50;;;8.10;95.00;;;;;;5012242;28;20116;-80
2022/03/08 10:43:00;;;;;;;12.03;8.07;;;8.10;92.60;;;;;;5045593;28;20119;-80
2022/03/08 10:45:28;;;;;;;13.37;8.43;;;8.10;93.60;;;;;;5006132;28;20083;-80
2022/03/08 10:47:54;;;;;;;11.07;7.17;;;8.30;93.90;;;;;;5022954;28;20055;-80
2022/03/08 10:50:23;;;;;;;11.07;7.20;;;8.30;93.10;;;;;;5018663;28;20045;-80
2022/03/08 10:52:55;;;;;;;11.80;8.07;;;8.40;91.30;;;;;;5008742;28;20385;-80
2022/03/08 10:55:23;;;;;;;13.23;8.40;;;8.50;90.10;;;;;;5015665;28;20512;-80
2022/03/08 10:57:57;;;;;;;11.53;8.00;;;8.50;89.70;;;;;;5013873;28;20392;-79
2022/03/08 11:00:32;;;;;;;9.53;6.63;;;8.60;87.50;;;;;;5016057;28;20186;-80
2022/03/08 11:03:01;;;;;;;9.13;6.83;;;8.60;82.20;;;;;;5011177;28;20037;-80
2022/03/08 11:05:32;;;;;;;8.83;6.77;;;8.70;84.50;;;;;;5017340;28;20045;-80
2022/03/08 11:07:58;;;;;;;10.67;7.40;;;8.70;82.70;;;;;;5009129;28;20472;-80
2022/03/08 11:10:27;;;;;;;10.03;6.83;;;8.80;82.00;;;;;;5015771;28;20042;-81
2022/03/08 11:12:54;;;;;;;10.47;7.00;;;8.80;82.40;;;;;;5015706;28;20036;-80
2022/03/08 11:15:22;;;;;;;10.47;7.10;;;8.90;84.10;;;;;;5035233;28;20120;-80
2022/03/08 11:17:50;;;;;;;9.80;6.60;;;9.00;81.30;;;;;;5030948;28;20419;-80
2022/03/08 11:20:18;;;;;;;9.40;6.23;;;9.00;79.00;;;;;;5042623;28;20047;-80
2022/03/08 11:22:46;;;;;;;8.03;5.40;;;9.00;78.90;;;;;;5010244;28;20049;-79
2022/03/08 11:25:16;;;;;;;7.53;5.30;;;9.10;77.10;;;;;;5031820;28;20068;-80
2022/03/08 11:27:43;;;;;;;8.47;6.00;;;9.20;76.50;;;;;;5017283;28;20516;-80
2022/03/08 11:30:12;;;;;;;8.00;6.03;;;9.30;76.20;;;;;;5004422;28;20038;-80
2022/03/08 11:32:40;;;;;;;9.70;6.43;;;9.30;75.70;;;;;;5018739;28;20072;-81
2022/03/08 11:35:50;;;;;;;10.17;5.60;;;9.30;75.70;;;;;;5017344;28;20029;-79
2022/03/08 11:38:16;;;;;;;7.27;4.83;;;9.30;71.00;;;;;;5006277;28;20049;-80
2022/03/08 11:40:54;;;;;;;7.23;5.53;;;9.40;74.90;;;;;;5014086;28;20731;-80
2022/03/08 11:43:21;;;;;;;8.17;5.67;;;9.40;71.20;;;;;;5015293;28;20045;-80
2022/03/08 11:45:48;;;;;;;8.77;5.70;;;9.50;73.60;;;;;;5017438;28;20075;-80
2022/03/08 11:48:19;;;;;;;7.80;5.17;;;9.60;74.20;;;;;;5001774;28;20476;-80
2022/03/08 11:50:46;;;;;;;7.97;5.47;;;9.70;71.00;;;;;;5015483;28;20033;-80
2022/03/08 11:53:18;;;;;;;6.27;4.93;;;9.70;72.50;;;;;;5017729;28;20816;-80
2022/03/08 11:55:43;;;;;;;8.32;5.43;;;9.70;71.40;;;;;;5027393;28;20037;-80
2022/03/08 11:58:19;;;;;;;7.70;5.03;;;9.70;71.40;;;;;;5033577;28;20091;-80
2022/03/08 12:00:53;;;;;;;6.97;5.00;;;9.80;70.50;;;;;;5035440;28;20068;-80
2022/03/08 12:03:22;;;;;;;7.17;5.80;;;9.80;68.30;;;;;;5016984;28;20443;-79
2022/03/08 12:06:07;;;;;;;7.83;5.80;;;9.80;70.10;;;;;;5011696;28;20041;-79
2022/03/08 12:08:39;;;;;;;8.63;5.53;;;9.90;69.00;;;;;;5029364;28;20126;-79
2022/03/08 12:11:15;;;;;;;6.50;5.20;;;10.00;69.10;;;;;;5032237;28;20382;-80
2022/03/08 12:13:44;;;;;;;6.40;4.90;;;10.00;67.90;;;;;;5017661;28;20049;-80
2022/03/08 12:16:10;;;;;;;6.33;4.77;;;10.00;69.10;;;;;;5032506;28;20042;-80
2022/03/08 12:18:51;;;;;;;5.70;4.70;;;10.00;68.20;;;;;;5011593;28;20443;-80
2022/03/08 12:21:20;;;;;;;6.72;5.15;;;10.00;68.10;;;;;;5030023;28;20044;-79
2022/03/08 12:23:57;;;;;;;7.23;5.20;;;10.00;68.10;;;;;;5029259;28;20128;-80
2022/03/08 12:26:24;;;;;;;8.13;5.00;;;10.00;67.20;;;;;;5013266;28;20065;-80
2022/03/08 12:29:15;;;;;;;7.80;5.43;;;10.10;66.40;;;;;;5032306;28;20136;-79
2022/03/08 12:32:14;;;;;;;6.03;4.60;;;10.10;66.10;;;;;;5032600;28;20037;-80
2022/03/08 12:34:42;;;;;;;6.40;5.17;;;10.10;64.90;;;;;;5015562;28;20087;-79
2022/03/08 12:37:11;;;;;;;7.40;4.93;;;10.10;65.00;;;;;;5015877;28;20041;-81
2022/03/08 12:39:56;;;;;;;7.63;5.13;;;10.10;65.90;;;;;;5032052;28;20045;-79